Harry B. Settoon — WDE5658 — position and weather

sailwx.info

Track history (hours):
 
Tides and Currents Weather Stations Pressure Air Temp Water Temp Dewpoint Dewpoint Depression Visibility Wind Speed Wind Dir Waves Ship Positions

Harry B. Settoon

Owner: Settoon Towing, LLC, Houma, LA. More information available from US FCC via Universal Licensing System and Coast Guard Vessel Documentation Center.

Last reported at 2014-Oct-26 12:13 UTC. Time now 2014-Nov-01 10:32 UTC.
Position N 29°55' W 092°37'.

; draft 1.8 m.

Type: Tug. MMSI: 367369920.

Date/timePositionNaut miles runAvg speedWind from/ knotsBaromVisibWave heightAir tempDewpointWater temp
2014-Oct-26 12:13N 29°55' W 092°37'17 3.4
2014-Oct-26 07:18N 29°50' W 092°19'4 5.8
2014-Oct-26 06:33N 29°48' W 092°14'24 1.4
2014-Oct-25 13:33N 29°41' W 091°48'0 0.0
2014-Oct-25 12:07N 29°41' W 091°48'0 0.0
2014-Oct-25 10:20N 29°41' W 091°48'0 0.0
2014-Oct-25 07:16N 29°41' W 091°48'0 0.0
2014-Oct-24 14:04N 29°41' W 091°48'5 2.4
2014-Oct-24 12:07N 29°44' W 091°44'1 1.5
2014-Oct-24 11:14N 29°46' W 091°45'  
2014-Oct-21 12:09N 29°41' W 091°48'0 0.0
2014-Oct-21 11:08N 29°41' W 091°48'0 0.0
2014-Oct-21 10:24N 29°41' W 091°48'0 0.0
2014-Oct-21 09:33N 29°41' W 091°48'0 0.0
2014-Oct-21 07:25N 29°41' W 091°48'0 0.0
2014-Oct-21 06:26N 29°41' W 091°48'0 0.0
2014-Oct-21 05:33N 29°41' W 091°48'0 0.0
2014-Oct-21 03:12N 29°41' W 091°48'  
Track history (hours):
 
Tides and Currents Weather Stations Pressure Air Temp Water Temp Dewpoint Dewpoint Depression Visibility Wind Speed Wind Dir Waves Ship Positions

Harry B. Settoon

Owner: Settoon Towing, LLC, Houma, LA. More information available from US FCC via Universal Licensing System and Coast Guard Vessel Documentation Center.

Last reported at 2014-Oct-26 12:13 UTC. Time now 2014-Nov-01 10:32 UTC.
Position N 29°55' W 092°37'.

; draft 1.8 m.

Type: Tug. MMSI: 367369920.

Date/timePositionNaut miles runAvg speedWind from/ knotsBaromVisibWave heightAir tempDewpointWater temp
2014-Oct-26 12:13N 29°55' W 092°37'17 3.4
2014-Oct-26 07:18N 29°50' W 092°19'4 5.8
2014-Oct-26 06:33N 29°48' W 092°14'24 1.4
2014-Oct-25 13:33N 29°41' W 091°48'0 0.0
2014-Oct-25 12:07N 29°41' W 091°48'0 0.0
2014-Oct-25 10:20N 29°41' W 091°48'0 0.0
2014-Oct-25 07:16N 29°41' W 091°48'0 0.0
2014-Oct-24 14:04N 29°41' W 091°48'5 2.4
2014-Oct-24 12:07N 29°44' W 091°44'1 1.5
2014-Oct-24 11:14N 29°46' W 091°45'  
2014-Oct-21 12:09N 29°41' W 091°48'0 0.0
2014-Oct-21 11:08N 29°41' W 091°48'0 0.0
2014-Oct-21 10:24N 29°41' W 091°48'0 0.0
2014-Oct-21 09:33N 29°41' W 091°48'0 0.0
2014-Oct-21 07:25N 29°41' W 091°48'0 0.0
2014-Oct-21 06:26N 29°41' W 091°48'0 0.0
2014-Oct-21 05:33N 29°41' W 091°48'0 0.0
2014-Oct-21 03:12N 29°41' W 091°48'  

Dump ship's entire track history